createdAt,value
2018-01-16T00:00:01.720Z,7.10
2018-01-16T00:02:28.811Z,7.00
2018-01-16T00:04:55.151Z,7.10
2018-01-16T00:07:21.467Z,7.00
2018-01-16T00:09:47.729Z,7.20
2018-01-16T00:12:14.007Z,7.10
2018-01-16T00:14:40.322Z,7.00
2018-01-16T00:17:07.347Z,7.10
2018-01-16T00:19:33.612Z,7.10
2018-01-16T00:21:59.904Z,7.00
2018-01-16T00:24:26.184Z,7.00
2018-01-16T00:26:52.457Z,6.90
2018-01-16T00:29:18.753Z,7.00
2018-01-16T00:31:45.030Z,6.90
2018-01-16T00:34:11.386Z,7.10
2018-01-16T00:36:37.718Z,7.00
2018-01-16T00:39:04.082Z,7.50
2018-01-16T00:41:30.384Z,6.80
2018-01-16T00:43:56.673Z,6.50
2018-01-16T00:46:22.974Z,7.30
2018-01-16T00:48:49.247Z,7.40
2018-01-16T00:51:15.577Z,7.10
2018-01-16T00:53:42.582Z,7.40
2018-01-16T00:56:08.882Z,7.10
2018-01-16T00:58:35.245Z,7.40
2018-01-16T01:01:02.295Z,7.30
2018-01-16T01:03:28.583Z,7.70
2018-01-16T01:05:54.900Z,8.00
2018-01-16T01:08:21.173Z,7.60
2018-01-16T01:10:47.466Z,7.80
2018-01-16T01:13:13.762Z,7.70
2018-01-16T01:15:40.789Z,7.80
2018-01-16T01:18:07.811Z,7.60
2018-01-16T01:20:34.844Z,7.80
2018-01-16T01:23:01.851Z,7.80
2018-01-16T01:25:28.133Z,7.70
2018-01-16T01:27:54.428Z,7.70
2018-01-16T01:30:21.449Z,7.70
2018-01-16T01:32:48.462Z,7.70
2018-01-16T01:35:14.814Z,7.70
2018-01-16T01:40:14.219Z,7.80
2018-01-16T01:42:40.522Z,7.80
2018-01-16T01:45:06.789Z,8.00
2018-01-16T01:47:33.105Z,7.70
2018-01-16T01:49:59.351Z,7.70
2018-01-16T01:52:26.352Z,7.80
2018-01-16T01:54:52.650Z,7.70
2018-01-16T01:57:18.915Z,7.90
2018-01-16T01:59:45.934Z,7.60
2018-01-16T02:02:12.225Z,7.90
2018-01-16T02:04:38.524Z,7.50
2018-01-16T02:07:04.780Z,7.70
2018-01-16T02:09:31.802Z,7.50
2018-01-16T02:11:58.114Z,7.60
2018-01-16T02:14:24.389Z,7.60
2018-01-16T02:16:50.709Z,7.70
2018-01-16T02:19:17.019Z,7.00
2018-01-16T02:21:43.353Z,7.70
2018-01-16T02:24:09.641Z,7.50
2018-01-16T02:26:35.904Z,7.40
2018-01-16T02:29:02.168Z,7.60
2018-01-16T02:31:28.469Z,7.40
2018-01-16T02:33:54.830Z,7.50
2018-01-16T02:36:21.101Z,7.70
2018-01-16T02:38:48.137Z,7.40
2018-01-16T02:41:14.455Z,7.50
2018-01-16T02:43:40.747Z,7.60
2018-01-16T02:46:07.825Z,7.50
2018-01-16T02:48:34.843Z,7.50
2018-01-16T02:51:01.145Z,7.50
2018-01-16T02:53:28.189Z,7.50
2018-01-16T02:55:54.556Z,7.50
2018-01-16T02:58:20.836Z,7.40
2018-01-16T03:00:47.126Z,7.50
2018-01-16T03:03:13.434Z,7.50
2018-01-16T03:05:40.463Z,7.40
2018-01-16T03:08:07.500Z,7.50
2018-01-16T03:10:34.545Z,7.80
2018-01-16T03:13:00.882Z,7.60
2018-01-16T03:15:27.189Z,7.70
2018-01-16T03:17:53.514Z,7.60
2018-01-16T03:20:19.789Z,7.60
2018-01-16T03:22:46.845Z,7.50
2018-01-16T03:25:13.114Z,7.70
2018-01-16T03:27:39.389Z,7.50
2018-01-16T03:30:05.717Z,7.30
2018-01-16T03:32:31.991Z,7.40
2018-01-16T03:34:59.037Z,7.50
2018-01-16T03:37:25.385Z,7.50
2018-01-16T03:39:51.678Z,7.00
2018-01-16T03:42:18.688Z,7.50
2018-01-16T03:44:45.748Z,7.50
2018-01-16T03:47:12.033Z,7.20
2018-01-16T03:49:39.054Z,7.50
2018-01-16T03:52:06.094Z,7.40
2018-01-16T03:54:33.135Z,7.40
2018-01-16T03:56:59.414Z,7.30
2018-01-16T03:59:25.689Z,7.40
2018-01-16T04:01:51.973Z,7.30
2018-01-16T04:04:18.978Z,7.40
2018-01-16T04:06:45.283Z,7.10
2018-01-16T04:09:11.570Z,7.20
2018-01-16T04:11:37.844Z,7.40
2018-01-16T04:14:08.399Z,7.10
2018-01-16T04:16:36.841Z,7.10
2018-01-16T04:19:05.615Z,7.10
2018-01-16T04:21:34.402Z,7.20
2018-01-16T04:24:02.321Z,7.40
2018-01-16T04:26:28.622Z,7.40
2018-01-16T04:28:54.943Z,7.70
2018-01-16T04:31:21.234Z,7.10
2018-01-16T04:33:47.510Z,7.30
2018-01-16T04:36:13.831Z,7.20
2018-01-16T04:38:40.127Z,7.30
2018-01-16T04:41:06.394Z,7.20
2018-01-16T04:43:32.727Z,7.30
2018-01-16T04:45:59.022Z,7.20
2018-01-16T04:48:25.304Z,7.60
2018-01-16T04:50:51.632Z,7.20
2018-01-16T04:53:17.902Z,7.10
2018-01-16T04:55:44.172Z,7.40
2018-01-16T04:58:10.500Z,7.40
2018-01-16T05:00:36.778Z,7.20
2018-01-16T05:03:03.122Z,7.40
2018-01-16T05:05:29.438Z,7.30
2018-01-16T05:07:55.725Z,6.60
2018-01-16T05:10:21.988Z,7.10
2018-01-16T05:12:48.287Z,7.30
2018-01-16T05:15:14.590Z,6.90
2018-01-16T05:17:40.890Z,7.10
2018-01-16T05:20:07.277Z,7.10
2018-01-16T05:22:34.275Z,7.00
2018-01-16T05:25:00.548Z,6.80
2018-01-16T05:27:26.834Z,7.00
2018-01-16T05:29:53.107Z,6.90
2018-01-16T05:32:19.403Z,7.00
2018-01-16T05:34:45.775Z,6.80
2018-01-16T05:37:12.035Z,6.50
2018-01-16T05:39:38.293Z,7.10
2018-01-16T05:42:04.744Z,7.10
2018-01-16T05:44:31.767Z,7.00
2018-01-16T05:46:58.818Z,7.00
2018-01-16T05:49:25.116Z,7.00
2018-01-16T05:51:52.152Z,7.10
2018-01-16T05:54:19.234Z,7.20
2018-01-16T05:56:45.530Z,7.10
2018-01-16T05:59:11.818Z,7.20
2018-01-16T06:01:38.847Z,7.10
2018-01-16T06:04:05.885Z,7.20
2018-01-16T06:06:32.887Z,7.40
2018-01-16T06:08:59.405Z,7.20
2018-01-16T06:11:26.512Z,7.20
2018-01-16T06:13:52.818Z,6.70
2018-01-16T06:16:19.092Z,7.30
2018-01-16T06:18:46.667Z,7.20
2018-01-16T06:21:13.466Z,7.10
2018-01-16T06:23:39.891Z,7.10
2018-01-16T06:26:06.411Z,7.30
2018-01-16T06:28:33.421Z,7.10
2018-01-16T06:31:00.460Z,7.10
2018-01-16T06:33:26.806Z,7.30
2018-01-16T06:35:53.086Z,7.20
2018-01-16T06:38:19.400Z,7.40
2018-01-16T06:40:45.748Z,7.30
2018-01-16T06:43:12.773Z,7.20
2018-01-16T06:45:39.797Z,7.20
2018-01-16T06:48:06.835Z,7.20
2018-01-16T06:50:33.890Z,7.20
2018-01-16T06:53:01.692Z,7.10
2018-01-16T06:55:30.564Z,6.80
2018-01-16T06:57:57.562Z,6.90
2018-01-16T07:00:24.644Z,6.80
2018-01-16T07:02:53.033Z,6.90
2018-01-16T07:05:20.967Z,7.00
2018-01-16T07:07:48.020Z,7.20
2018-01-16T07:10:18.088Z,7.00
2018-01-16T07:12:44.402Z,7.20
2018-01-16T07:15:13.509Z,7.00
2018-01-16T07:17:42.798Z,7.20
2018-01-16T07:20:10.381Z,7.00
2018-01-16T07:22:38.818Z,6.90
2018-01-16T07:25:07.622Z,7.30
2018-01-16T07:27:36.973Z,7.10
2018-01-16T07:30:05.813Z,7.10
2018-01-16T07:32:35.456Z,7.10
2018-01-16T07:35:01.736Z,7.30
2018-01-16T07:37:28.041Z,7.30
2018-01-16T07:39:54.346Z,7.20
2018-01-16T07:42:20.749Z,7.20
2018-01-16T07:44:47.028Z,7.30
2018-01-16T07:47:13.359Z,7.20
2018-01-16T07:49:39.668Z,7.30
2018-01-16T07:52:05.982Z,7.40
2018-01-16T07:54:32.294Z,7.20
2018-01-16T07:56:58.562Z,7.10
2018-01-16T07:59:25.620Z,7.00
2018-01-16T08:01:52.687Z,7.20
2018-01-16T08:04:18.963Z,7.20
2018-01-16T08:06:45.253Z,7.10
2018-01-16T08:09:11.546Z,7.10
2018-01-16T08:11:37.817Z,7.00
2018-01-16T08:14:04.828Z,6.90
2018-01-16T08:16:31.155Z,7.00
2018-01-16T08:18:57.419Z,7.30
2018-01-16T08:21:23.685Z,7.50
2018-01-16T08:23:50.058Z,7.30
2018-01-16T08:26:16.332Z,7.30
2018-01-16T08:28:43.333Z,7.20
2018-01-16T08:31:09.633Z,7.20
2018-01-16T08:33:35.890Z,7.20
2018-01-16T08:36:02.911Z,7.60
2018-01-16T08:38:29.236Z,7.40
2018-01-16T08:40:56.243Z,7.40
2018-01-16T08:43:22.510Z,7.40
2018-01-16T08:45:48.831Z,7.70
2018-01-16T08:48:15.837Z,7.30
2018-01-16T08:50:42.849Z,7.50
2018-01-16T08:53:09.152Z,7.60
2018-01-16T08:55:35.437Z,7.50
2018-01-16T08:58:01.734Z,7.70
2018-01-16T09:00:28.034Z,8.00
2018-01-16T09:02:55.240Z,7.60
2018-01-16T09:05:21.533Z,7.50
2018-01-16T09:07:47.840Z,7.60
2018-01-16T09:10:14.123Z,7.60
2018-01-16T09:12:40.395Z,7.60
2018-01-16T09:15:06.694Z,8.10
2018-01-16T09:17:33.023Z,7.80
2018-01-16T09:19:59.376Z,8.00
2018-01-16T09:22:25.706Z,7.80
2018-01-16T09:24:52.020Z,7.80
2018-01-16T09:27:18.354Z,7.70
2018-01-16T09:29:44.671Z,7.80
2018-01-16T09:32:10.981Z,7.90
2018-01-16T09:34:37.250Z,7.70
2018-01-16T09:37:03.570Z,8.00
2018-01-16T09:39:29.886Z,8.20
2018-01-16T09:41:56.156Z,8.00
2018-01-16T09:44:22.458Z,8.00
2018-01-16T09:46:48.758Z,7.90
2018-01-16T09:49:15.789Z,7.70
2018-01-16T09:51:42.113Z,7.70
2018-01-16T09:54:08.407Z,7.50
2018-01-16T09:56:35.427Z,7.80
2018-01-16T09:59:01.732Z,7.70
2018-01-16T10:01:28.021Z,7.50
2018-01-16T10:03:54.291Z,7.50
2018-01-16T10:06:21.338Z,7.50
2018-01-16T10:08:47.636Z,7.60
2018-01-16T10:11:14.668Z,7.70
2018-01-16T10:13:41.028Z,7.70
2018-01-16T10:16:07.298Z,7.60
2018-01-16T10:18:34.328Z,7.90
2018-01-16T10:21:01.437Z,7.70
2018-01-16T10:23:27.679Z,7.60
2018-01-16T10:25:53.966Z,7.60
2018-01-16T10:28:20.294Z,7.30
2018-01-16T10:30:46.558Z,7.90
2018-01-16T10:33:12.876Z,8.00
2018-01-16T10:35:39.201Z,8.00
2018-01-16T10:38:05.467Z,7.80
2018-01-16T10:40:32.474Z,7.60
2018-01-16T10:42:58.843Z,7.70
2018-01-16T10:45:25.148Z,7.50
2018-01-16T10:47:51.402Z,7.50
2018-01-16T10:50:17.705Z,7.20
2018-01-16T10:52:44.725Z,7.70
2018-01-16T10:55:11.034Z,7.80
2018-01-16T10:57:37.369Z,7.90
2018-01-16T11:00:03.778Z,8.20
2018-01-16T11:02:30.077Z,8.40
2018-01-16T11:04:56.379Z,8.30
2018-01-16T11:07:22.703Z,9.70
2018-01-16T11:09:49.862Z,12.20
2018-01-16T11:12:16.166Z,12.20
2018-01-16T11:14:42.450Z,12.70
2018-01-16T11:17:08.697Z,14.00
2018-01-16T11:19:35.130Z,14.50
2018-01-16T11:22:01.485Z,14.10
2018-01-16T11:24:27.786Z,14.50
2018-01-16T11:26:54.087Z,14.50
2018-01-16T11:29:20.463Z,13.20
2018-01-16T11:31:47.464Z,13.50
2018-01-16T11:34:13.751Z,13.30
2018-01-16T11:36:40.307Z,13.00
2018-01-16T11:39:07.391Z,13.90
2018-01-16T11:41:33.702Z,14.10
2018-01-16T11:44:00.006Z,13.90
2018-01-16T11:46:26.676Z,14.10
2018-01-16T11:48:52.977Z,13.30
2018-01-16T11:51:19.331Z,13.40
2018-01-16T11:53:45.678Z,13.80
2018-01-16T11:56:12.000Z,14.30
2018-01-16T11:58:38.307Z,15.00
2018-01-16T12:01:05.410Z,15.30
2018-01-16T12:03:31.713Z,15.10
2018-01-16T12:05:58.036Z,14.60
2018-01-16T12:08:24.341Z,14.10
2018-01-16T12:10:50.662Z,13.60
2018-01-16T12:13:16.950Z,13.30
2018-01-16T12:15:43.264Z,12.80
2018-01-16T12:18:09.565Z,12.50
2018-01-16T12:20:35.863Z,11.90
2018-01-16T12:23:02.917Z,10.00
2018-01-16T12:25:29.260Z,10.00
2018-01-16T12:27:55.567Z,9.70
2018-01-16T12:30:21.849Z,9.40
2018-01-16T12:32:48.149Z,9.60
2018-01-16T12:35:15.200Z,9.80
2018-01-16T12:37:41.477Z,9.50
2018-01-16T12:40:07.755Z,9.60
2018-01-16T12:42:34.026Z,9.80
2018-01-16T12:45:00.327Z,9.90
2018-01-16T12:47:26.650Z,9.70
2018-01-16T12:49:52.932Z,9.40
2018-01-16T12:52:19.239Z,9.10
2018-01-16T12:54:45.506Z,9.30
2018-01-16T12:57:12.546Z,8.90
2018-01-16T12:59:39.569Z,8.90
2018-01-16T13:02:06.591Z,8.90
2018-01-16T13:04:32.880Z,8.90
2018-01-16T13:06:59.171Z,8.70
2018-01-16T13:09:25.512Z,8.80
2018-01-16T13:11:51.786Z,8.90
2018-01-16T13:14:18.048Z,9.00
2018-01-16T13:16:44.327Z,9.00
2018-01-16T13:19:10.609Z,8.80
2018-01-16T13:21:37.665Z,9.20
2018-01-16T13:24:03.942Z,9.50
2018-01-16T13:26:30.238Z,9.00
2018-01-16T13:28:56.564Z,9.00
2018-01-16T13:31:22.859Z,8.90
2018-01-16T13:33:49.150Z,8.70
2018-01-16T13:36:15.415Z,8.90
2018-01-16T13:38:41.713Z,8.70
2018-01-16T13:41:08.050Z,9.00
2018-01-16T13:43:34.314Z,8.80
2018-01-16T13:46:00.622Z,8.80
2018-01-16T13:48:26.907Z,9.00
2018-01-16T13:50:53.942Z,8.80
2018-01-16T13:53:20.982Z,8.70
2018-01-16T13:55:48.058Z,9.20
2018-01-16T13:58:14.352Z,8.90
2018-01-16T14:00:40.633Z,8.80
2018-01-16T14:03:07.636Z,8.80
2018-01-16T14:05:34.455Z,8.80
2018-01-16T14:08:00.754Z,8.70
2018-01-16T14:10:27.018Z,8.70
2018-01-16T14:12:53.302Z,8.80
2018-01-16T14:15:19.567Z,8.80
2018-01-16T14:17:46.609Z,8.80
2018-01-16T14:20:13.601Z,8.60
2018-01-16T14:22:39.930Z,8.70
2018-01-16T14:25:07.010Z,8.80
2018-01-16T14:27:33.372Z,9.20
2018-01-16T14:29:59.719Z,8.40
2018-01-16T14:32:26.030Z,8.40
2018-01-16T14:34:52.370Z,8.50
2018-01-16T14:37:18.676Z,8.50
2018-01-16T14:39:45.002Z,8.30
2018-01-16T14:42:11.448Z,8.30
2018-01-16T14:44:37.718Z,8.30
2018-01-16T14:47:03.995Z,8.30
2018-01-16T14:49:30.287Z,8.30
2018-01-16T14:51:56.580Z,8.10
2018-01-16T14:54:22.862Z,8.30
2018-01-16T14:56:50.256Z,8.30
2018-01-16T14:59:16.558Z,8.30
2018-01-16T15:01:42.945Z,8.50
2018-01-16T15:04:10.073Z,8.40
2018-01-16T15:06:36.363Z,8.30
2018-01-16T15:09:02.721Z,8.40
2018-01-16T15:11:29.036Z,8.40
2018-01-16T15:13:55.399Z,8.70
2018-01-16T15:16:22.871Z,8.70
2018-01-16T15:18:49.276Z,8.40
2018-01-16T15:21:15.621Z,8.00
2018-01-16T15:23:42.973Z,7.80
2018-01-16T15:26:09.282Z,7.90
2018-01-16T15:28:36.687Z,7.90
2018-01-16T15:31:03.046Z,7.80
2018-01-16T15:33:29.353Z,7.60
2018-01-16T15:35:55.666Z,7.60
2018-01-16T15:38:22.718Z,7.40
2018-01-16T15:40:49.055Z,7.60
2018-01-16T15:43:15.817Z,7.40
2018-01-16T15:45:42.133Z,6.80
2018-01-16T15:48:10.110Z,7.20
2018-01-16T15:50:37.279Z,7.20
2018-01-16T15:53:04.612Z,7.20
2018-01-16T15:55:30.974Z,7.10
2018-01-16T15:57:57.274Z,6.50
2018-01-16T16:00:23.566Z,7.10
2018-01-16T16:02:49.830Z,6.90
2018-01-16T16:05:16.598Z,6.90
2018-01-16T16:07:42.884Z,7.00
2018-01-16T16:10:10.483Z,7.10
2018-01-16T16:12:37.466Z,6.90
2018-01-16T16:15:04.479Z,7.00
2018-01-16T16:17:30.876Z,7.00
2018-01-16T16:19:57.159Z,7.00
2018-01-16T16:22:23.458Z,6.80
2018-01-16T16:24:49.730Z,7.00
2018-01-16T16:27:16.241Z,7.00
2018-01-16T16:29:42.564Z,6.90
2018-01-16T16:32:08.897Z,6.90
2018-01-16T16:34:35.255Z,7.00
2018-01-16T16:37:01.534Z,6.90
2018-01-16T16:39:28.549Z,7.10
2018-01-16T16:41:54.880Z,6.50
2018-01-16T16:44:21.894Z,7.00
2018-01-16T16:46:48.229Z,6.80
2018-01-16T16:49:15.291Z,7.10
2018-01-16T16:51:41.607Z,7.00
2018-01-16T16:54:07.922Z,7.10
2018-01-16T16:56:34.180Z,6.90
2018-01-16T16:59:00.467Z,7.00
2018-01-16T17:01:26.827Z,7.10
2018-01-16T17:03:53.118Z,6.80
2018-01-16T17:06:19.405Z,7.00
2018-01-16T17:08:45.757Z,7.00
2018-01-16T17:11:12.075Z,6.70
2018-01-16T17:13:38.338Z,6.90
2018-01-16T17:16:05.351Z,6.90
2018-01-16T17:18:32.434Z,7.00
2018-01-16T17:20:58.700Z,6.90
2018-01-16T17:23:24.998Z,6.80
2018-01-16T17:25:51.262Z,7.00
2018-01-16T17:28:17.545Z,6.80
2018-01-16T17:30:44.565Z,6.80
2018-01-16T17:33:10.874Z,7.00
2018-01-16T17:35:37.170Z,6.80
2018-01-16T17:38:03.448Z,7.00
2018-01-16T17:40:29.758Z,6.90
2018-01-16T17:42:56.857Z,6.90
2018-01-16T17:45:23.158Z,6.80
2018-01-16T17:47:49.462Z,6.90
2018-01-16T17:50:15.750Z,6.90
2018-01-16T17:52:42.041Z,7.00
2018-01-16T17:55:08.329Z,6.90
2018-01-16T17:57:34.712Z,6.80
2018-01-16T18:00:01.009Z,6.90
2018-01-16T18:02:27.279Z,6.90
2018-01-16T18:04:53.538Z,7.10
2018-01-16T18:07:19.854Z,6.90
2018-01-16T18:09:46.137Z,6.30
2018-01-16T18:12:12.497Z,6.90
2018-01-16T18:14:38.881Z,6.90
2018-01-16T18:17:05.388Z,7.00
2018-01-16T18:19:31.899Z,7.10
2018-01-16T18:21:58.404Z,7.00
2018-01-16T18:24:24.880Z,6.80
2018-01-16T18:26:51.390Z,6.90
2018-01-16T18:29:18.574Z,6.80
2018-01-16T18:31:44.969Z,6.50
2018-01-16T18:34:18.480Z,6.70
2018-01-16T18:36:45.073Z,6.70
2018-01-16T18:39:12.239Z,6.60
2018-01-16T18:41:38.517Z,6.60
2018-01-16T18:44:04.853Z,6.70
2018-01-16T18:46:31.124Z,6.50
2018-01-16T18:48:57.435Z,6.50
2018-01-16T18:51:23.736Z,6.30
2018-01-16T18:53:50.026Z,6.40
2018-01-16T18:56:16.331Z,6.40
2018-01-16T18:58:42.595Z,6.50
2018-01-16T19:01:08.892Z,6.30
2018-01-16T19:03:35.195Z,6.30
2018-01-16T19:06:01.468Z,5.80
2018-01-16T19:08:27.790Z,6.50
2018-01-16T19:10:54.081Z,6.20
2018-01-16T19:13:21.093Z,6.30
2018-01-16T19:15:47.402Z,6.20
2018-01-16T19:18:13.653Z,6.10
2018-01-16T19:20:40.700Z,6.10
2018-01-16T19:23:07.010Z,5.60
2018-01-16T19:25:33.325Z,6.20
2018-01-16T19:27:59.724Z,5.80
2018-01-16T19:30:26.731Z,5.80
2018-01-16T19:32:53.009Z,5.70
2018-01-16T19:35:19.295Z,5.50
2018-01-16T19:37:45.634Z,5.60
2018-01-16T19:40:11.955Z,5.70
2018-01-16T19:42:38.229Z,5.50
2018-01-16T19:45:04.535Z,5.40
2018-01-16T19:47:31.034Z,5.60
2018-01-16T19:49:57.573Z,5.50
2018-01-16T19:52:24.675Z,5.50
2018-01-16T19:54:50.971Z,5.60
2018-01-16T19:57:17.292Z,5.10
2018-01-16T19:59:43.606Z,5.20
2018-01-16T20:02:09.910Z,5.50
2018-01-16T20:04:36.207Z,5.10
2018-01-16T20:07:03.369Z,5.00
2018-01-16T20:09:30.672Z,5.30
2018-01-16T20:11:57.229Z,5.20
2018-01-16T20:14:23.510Z,4.80
2018-01-16T20:16:50.621Z,5.20
2018-01-16T20:19:17.201Z,4.90
2018-01-16T20:21:43.736Z,5.10
2018-01-16T20:24:10.085Z,5.10
2018-01-16T20:26:36.588Z,5.00
2018-01-16T20:29:03.195Z,5.10
2018-01-16T20:31:30.112Z,5.10
2018-01-16T20:33:56.373Z,4.60
2018-01-16T20:36:22.697Z,5.00
2018-01-16T20:38:49.038Z,4.90
2018-01-16T20:41:15.342Z,4.90
2018-01-16T20:43:42.398Z,4.70
2018-01-16T20:46:08.690Z,5.10
2018-01-16T20:48:35.738Z,5.10
2018-01-16T20:51:02.075Z,4.90
2018-01-16T20:53:28.394Z,4.90
2018-01-16T20:55:54.682Z,4.90
2018-01-16T20:58:20.945Z,4.90
2018-01-16T21:00:47.235Z,4.80
2018-01-16T21:03:15.042Z,4.80
2018-01-16T21:05:45.053Z,5.00
2018-01-16T21:08:12.090Z,4.70
2018-01-16T21:10:38.515Z,4.80
2018-01-16T21:13:05.625Z,4.70
2018-01-16T21:15:32.231Z,4.80
2018-01-16T21:17:58.546Z,4.30
2018-01-16T21:20:24.849Z,4.70
2018-01-16T21:22:51.146Z,4.70
2018-01-16T21:25:17.683Z,4.80
2018-01-16T21:27:44.182Z,4.70
2018-01-16T21:30:10.579Z,4.60
2018-01-16T21:32:36.862Z,4.70
2018-01-16T21:35:03.154Z,4.50
2018-01-16T21:37:29.894Z,4.70
2018-01-16T21:39:56.236Z,4.70
2018-01-16T21:42:23.268Z,4.70
2018-01-16T21:44:50.298Z,4.50
2018-01-16T21:47:16.642Z,4.70
2018-01-16T21:49:43.094Z,4.20
2018-01-16T21:52:09.735Z,4.50
2018-01-16T21:54:36.804Z,4.70
2018-01-16T21:57:04.214Z,4.80
2018-01-16T21:59:30.506Z,4.60
2018-01-16T22:01:57.229Z,4.70
2018-01-16T22:04:23.635Z,4.60
2018-01-16T22:06:50.369Z,4.80
2018-01-16T22:09:16.667Z,4.80
2018-01-16T23:33:39.844Z,5.00
2018-01-16T23:36:06.098Z,5.00
2018-01-16T23:38:32.686Z,4.90
2018-01-16T23:40:58.983Z,4.80
2018-01-16T23:43:25.262Z,4.90
2018-01-16T23:45:51.836Z,4.70
2018-01-16T23:48:28.629Z,5.00
2018-01-16T23:50:55.047Z,5.00
2018-01-16T23:53:21.338Z,4.90
2018-01-16T23:55:48.342Z,4.90
2018-01-16T23:58:14.842Z,5.00
